createdAt,value
2018-08-28T00:02:10.432Z,45.70
2018-08-28T00:04:39.368Z,45.50
2018-08-28T00:07:07.932Z,45.80
2018-08-28T00:09:36.637Z,45.50
2018-08-28T00:12:05.253Z,45.70
2018-08-28T00:14:33.797Z,45.60
2018-08-28T00:17:02.437Z,45.90
2018-08-28T00:19:31.703Z,45.60
2018-08-28T00:22:00.302Z,46.30
2018-08-28T00:24:29.229Z,45.60
2018-08-28T00:26:59.023Z,46.00
2018-08-28T00:29:28.559Z,45.80
2018-08-28T00:31:57.449Z,45.90
2018-08-28T00:34:26.147Z,45.90
2018-08-28T00:36:54.806Z,46.00
2018-08-28T00:39:23.733Z,46.10
2018-08-28T00:41:52.554Z,46.00
2018-08-28T00:44:21.766Z,46.00
2018-08-28T00:46:51.766Z,46.40
2018-08-28T00:49:20.640Z,45.90
2018-08-28T00:51:49.203Z,46.00
2018-08-28T00:54:17.968Z,46.10
2018-08-28T00:56:47.105Z,46.30
2018-08-28T00:59:15.888Z,46.30
2018-08-28T01:01:44.505Z,46.40
2018-08-28T01:04:13.112Z,46.40
2018-08-28T01:06:42.033Z,46.40
2018-08-28T01:09:10.860Z,46.50
2018-08-28T01:11:39.387Z,46.60
2018-08-28T01:14:08.030Z,46.50
2018-08-28T01:16:36.610Z,46.50
2018-08-28T01:19:05.871Z,46.70
2018-08-28T01:21:34.495Z,46.50
2018-08-28T01:24:03.273Z,46.70
2018-08-28T01:26:31.872Z,47.20
2018-08-28T01:29:00.521Z,46.50
2018-08-28T01:31:29.835Z,47.60
2018-08-28T01:33:59.405Z,47.00
2018-08-28T01:36:28.018Z,46.90
2018-08-28T01:38:56.727Z,47.10
2018-08-28T01:41:26.217Z,47.30
2018-08-28T01:43:55.007Z,47.00
2018-08-28T01:46:23.652Z,47.20
2018-08-28T01:48:52.287Z,47.20
2018-08-28T01:51:20.898Z,47.20
2018-08-28T01:53:49.857Z,47.30
2018-08-28T01:56:18.513Z,47.00
2018-08-28T01:58:47.159Z,47.00
2018-08-28T02:01:16.364Z,46.60
2018-08-28T02:03:44.983Z,47.30
2018-08-28T02:06:13.530Z,47.20
2018-08-28T02:08:42.177Z,47.30
2018-08-28T02:11:10.859Z,47.20
2018-08-28T02:13:39.419Z,47.80
2018-08-28T02:16:07.997Z,47.20
2018-08-28T02:18:36.586Z,47.50
2018-08-28T02:21:05.335Z,47.40
2018-08-28T02:23:34.017Z,47.10
2018-08-28T02:26:02.671Z,47.20
2018-08-28T02:28:31.268Z,47.00
2018-08-28T02:30:59.848Z,47.20
2018-08-28T02:33:28.478Z,47.00
2018-08-28T02:35:57.055Z,47.30
2018-08-28T02:38:25.640Z,47.50
2018-08-28T02:40:54.292Z,47.10
2018-08-28T02:43:22.924Z,47.20
2018-08-28T02:45:51.515Z,47.10
2018-08-28T02:48:20.191Z,47.30
2018-08-28T02:50:48.723Z,47.40
2018-08-28T02:53:18.012Z,47.10
2018-08-28T02:55:46.642Z,47.00
2018-08-28T02:58:15.370Z,47.10
2018-08-28T03:00:43.940Z,47.20
2018-08-28T03:03:12.552Z,47.20
2018-08-28T03:05:41.154Z,47.40
2018-08-28T03:08:09.793Z,47.70
2018-08-28T03:10:38.484Z,47.70
2018-08-28T03:13:07.268Z,48.00
2018-08-28T03:15:36.087Z,47.90
2018-08-28T03:18:04.683Z,48.20
2018-08-28T03:20:33.246Z,48.20
2018-08-28T03:23:01.856Z,48.10
2018-08-28T03:25:30.585Z,48.30
2018-08-28T03:27:59.272Z,48.60
2018-08-28T03:30:27.909Z,48.60
2018-08-28T03:32:56.524Z,48.40
2018-08-28T03:35:25.104Z,48.50
2018-08-28T03:37:53.704Z,48.70
2018-08-28T03:40:22.381Z,48.40
2018-08-28T03:42:50.954Z,48.50
2018-08-28T03:45:19.578Z,48.60
2018-08-28T03:47:48.184Z,49.30
2018-08-28T03:50:16.860Z,48.70
2018-08-28T03:52:45.588Z,48.90
2018-08-28T03:55:14.227Z,49.00
2018-08-28T03:57:43.305Z,49.20
2018-08-28T04:00:11.951Z,49.30
2018-08-28T04:02:40.605Z,49.10
2018-08-28T04:05:09.356Z,49.10
2018-08-28T04:07:38.093Z,49.10
2018-08-28T04:10:06.656Z,49.20
2018-08-28T04:12:35.275Z,49.40
2018-08-28T04:15:04.020Z,49.50
2018-08-28T04:17:36.808Z,49.50
2018-08-28T04:20:05.472Z,49.10
2018-08-28T04:22:34.116Z,49.50
2018-08-28T04:25:02.675Z,49.10
2018-08-28T04:27:31.292Z,49.40
2018-08-28T04:29:59.842Z,49.20
2018-08-28T04:32:28.610Z,49.40
2018-08-28T04:34:57.212Z,49.30
2018-08-28T04:37:25.800Z,49.30
2018-08-28T04:39:54.755Z,49.30
2018-08-28T04:42:23.535Z,49.30
2018-08-28T04:44:52.225Z,49.40
2018-08-28T04:47:20.772Z,49.30
2018-08-28T04:49:49.602Z,49.50
2018-08-28T04:52:18.374Z,49.50
2018-08-28T04:54:47.399Z,49.40
2018-08-28T04:57:17.080Z,49.50
2018-08-28T04:59:45.892Z,49.50
2018-08-28T05:02:14.644Z,49.60
2018-08-28T05:04:43.256Z,49.50
2018-08-28T05:07:12.609Z,49.70
2018-08-28T05:09:41.375Z,49.80
2018-08-28T05:12:10.026Z,49.90
2018-08-28T05:14:38.657Z,50.20
2018-08-28T05:17:07.447Z,49.90
2018-08-28T05:19:36.100Z,49.80
2018-08-28T05:22:04.796Z,49.90
2018-08-28T05:24:33.438Z,49.90
2018-08-28T05:27:02.101Z,49.90
2018-08-28T05:29:30.723Z,50.20
2018-08-28T05:31:59.506Z,50.80
2018-08-28T05:34:28.248Z,51.30
2018-08-28T05:36:56.987Z,50.60
2018-08-28T05:39:25.627Z,51.00
2018-08-28T05:41:54.458Z,51.20
2018-08-28T05:44:23.052Z,51.50
2018-08-28T05:46:51.830Z,50.90
2018-08-28T05:49:20.400Z,51.10
2018-08-28T05:51:49.030Z,50.70
2018-08-28T05:54:17.753Z,51.10
2018-08-28T05:56:46.432Z,51.20
2018-08-28T05:59:15.104Z,51.00
2018-08-28T06:01:43.705Z,51.20
2018-08-28T06:04:12.362Z,51.00
2018-08-28T06:06:42.024Z,50.70
2018-08-28T06:09:10.637Z,50.90
2018-08-28T06:11:39.297Z,50.80
2018-08-28T06:14:07.874Z,51.30
2018-08-28T06:16:36.595Z,50.80
2018-08-28T06:19:05.376Z,51.10
2018-08-28T06:21:34.070Z,51.00
2018-08-28T06:24:02.734Z,51.30
2018-08-28T06:26:31.623Z,51.00
2018-08-28T06:29:00.153Z,51.10
2018-08-28T06:31:29.057Z,51.00
2018-08-28T06:33:57.775Z,51.10
2018-08-28T06:36:26.368Z,51.10
2018-08-28T06:38:55.804Z,51.10
2018-08-28T06:41:24.419Z,51.10
2018-08-28T06:43:53.059Z,51.20
2018-08-28T06:46:22.786Z,51.00
2018-08-28T06:48:52.095Z,51.70
2018-08-28T06:51:20.852Z,51.30
2018-08-28T06:53:49.588Z,51.60
2018-08-28T06:56:18.299Z,51.00
2018-08-28T06:58:47.076Z,51.30
2018-08-28T07:01:15.678Z,51.30
2018-08-28T07:03:44.356Z,51.10
2018-08-28T07:06:13.022Z,51.10
2018-08-28T07:08:41.827Z,51.00
2018-08-28T07:11:10.463Z,50.70
2018-08-28T07:13:39.087Z,50.90
2018-08-28T07:16:07.943Z,51.10
2018-08-28T07:18:36.569Z,51.00
2018-08-28T07:21:05.380Z,50.70
2018-08-28T07:23:34.190Z,51.00
2018-08-28T07:26:02.897Z,51.10
2018-08-28T07:28:31.467Z,51.40
2018-08-28T07:31:00.112Z,51.00
2018-08-28T07:33:28.789Z,50.90
2018-08-28T07:35:57.513Z,50.50
2018-08-28T07:38:26.190Z,50.80
2018-08-28T07:40:56.037Z,50.60
2018-08-28T07:43:24.633Z,50.70
2018-08-28T07:45:53.325Z,50.70
2018-08-28T07:48:22.014Z,50.60
2018-08-28T07:50:50.656Z,50.80
2018-08-28T07:53:19.279Z,50.30
2018-08-28T07:55:48.639Z,50.60
2018-08-28T07:58:17.583Z,50.50
2018-08-28T08:00:46.641Z,50.20
2018-08-28T08:03:19.542Z,50.40
2018-08-28T08:05:48.220Z,50.20
2018-08-28T08:08:16.964Z,49.30
2018-08-28T08:10:45.584Z,49.50
2018-08-28T08:13:14.364Z,49.60
2018-08-28T08:15:43.008Z,49.50
2018-08-28T08:18:11.866Z,49.10
2018-08-28T08:20:40.993Z,48.80
2018-08-28T08:23:10.528Z,49.20
2018-08-28T08:25:39.684Z,49.20
2018-08-28T08:28:09.414Z,49.20
2018-08-28T08:30:37.953Z,48.70
2018-08-28T08:33:06.771Z,48.40
2018-08-28T08:35:35.594Z,49.20
2018-08-28T08:38:04.354Z,48.70
2018-08-28T08:40:32.980Z,47.90
2018-08-28T08:43:01.689Z,48.20
2018-08-28T08:45:30.310Z,47.50
2018-08-28T08:47:58.985Z,46.90
2018-08-28T08:50:27.621Z,46.30
2018-08-28T08:52:56.601Z,46.10
2018-08-28T08:55:25.321Z,46.20
2018-08-28T08:57:54.015Z,46.10
2018-08-28T09:00:22.593Z,46.20
2018-08-28T09:02:51.274Z,46.20
2018-08-28T09:05:20.709Z,45.80
2018-08-28T09:07:49.817Z,45.40
2018-08-28T09:10:18.509Z,44.80
2018-08-28T09:12:47.571Z,44.40
2018-08-28T09:15:16.272Z,44.40
2018-08-28T09:17:44.917Z,44.10
2018-08-28T09:20:13.710Z,43.70
2018-08-28T09:22:42.370Z,42.90
2018-08-28T09:25:10.968Z,42.30
2018-08-28T09:27:39.799Z,41.80
2018-08-28T09:30:09.218Z,41.20
2018-08-28T09:32:37.907Z,40.90
2018-08-28T09:35:06.652Z,40.20
2018-08-28T09:37:35.430Z,40.20
2018-08-28T09:40:04.475Z,39.70
2018-08-28T09:42:34.088Z,40.20
2018-08-28T09:45:02.768Z,40.30
2018-08-28T09:47:31.556Z,39.70
2018-08-28T09:50:00.180Z,39.20
2018-08-28T09:52:29.004Z,38.40
2018-08-28T09:54:57.615Z,38.20
2018-08-28T09:57:26.779Z,38.10
2018-08-28T09:59:55.445Z,38.40
2018-08-28T10:02:24.300Z,38.90
2018-08-28T10:04:52.895Z,39.00
2018-08-28T10:07:21.506Z,39.00
2018-08-28T10:09:50.204Z,38.80
2018-08-28T10:12:18.901Z,39.00
2018-08-28T10:14:48.375Z,39.00
2018-08-28T10:17:17.242Z,37.60
2018-08-28T10:19:45.812Z,38.20
2018-08-28T10:22:14.452Z,38.50
2018-08-28T10:24:43.132Z,38.30
2018-08-28T10:27:11.798Z,38.30
2018-08-28T10:29:44.613Z,38.50
2018-08-28T10:32:13.343Z,38.60
2018-08-28T10:34:42.045Z,38.30
2018-08-28T10:37:10.775Z,38.20
2018-08-28T10:39:39.341Z,38.10
2018-08-28T10:42:07.965Z,37.50
2018-08-28T10:44:36.624Z,37.40
2018-08-28T10:47:05.700Z,37.20
2018-08-28T10:49:34.364Z,36.80
2018-08-28T10:52:03.465Z,36.30
2018-08-28T10:54:33.564Z,36.30
2018-08-28T10:57:03.352Z,36.40
2018-08-28T10:59:32.551Z,36.30
2018-08-28T11:02:01.112Z,35.90
2018-08-28T11:04:29.880Z,37.10
2018-08-28T11:06:58.693Z,36.40
2018-08-28T11:09:28.081Z,36.40
2018-08-28T11:11:56.792Z,36.40
2018-08-28T11:14:25.594Z,36.50
2018-08-28T11:16:54.225Z,36.80
2018-08-28T11:19:23.543Z,36.60
2018-08-28T11:21:52.275Z,36.40
2018-08-28T11:24:21.078Z,36.40
2018-08-28T11:26:50.310Z,36.50
2018-08-28T11:29:18.880Z,36.50
2018-08-28T11:31:47.779Z,36.40
2018-08-28T11:34:16.437Z,36.40
2018-08-28T11:36:45.254Z,36.40
2018-08-28T11:39:14.664Z,35.90
2018-08-28T11:41:43.521Z,35.80
2018-08-28T11:44:12.164Z,35.70
2018-08-28T11:46:40.762Z,35.40
2018-08-28T11:49:09.459Z,35.20
2018-08-28T11:51:38.172Z,34.80
2018-08-28T11:54:07.291Z,34.70
2018-08-28T11:56:36.232Z,34.80
2018-08-28T11:59:04.814Z,34.70
2018-08-28T12:01:33.627Z,34.50
2018-08-28T12:04:02.344Z,34.10
2018-08-28T12:06:31.114Z,34.20
2018-08-28T12:08:59.986Z,34.40
2018-08-28T12:11:28.756Z,34.50
2018-08-28T12:13:57.339Z,34.40
2018-08-28T12:16:25.978Z,34.20
2018-08-28T12:18:55.208Z,34.00
2018-08-28T12:21:24.640Z,34.30
2018-08-28T12:23:53.244Z,34.30
2018-08-28T12:26:21.901Z,34.40
2018-08-28T12:28:50.500Z,34.80
2018-08-28T12:31:19.236Z,33.70
2018-08-28T12:33:48.242Z,33.50
2018-08-28T12:36:16.887Z,33.20
2018-08-28T12:38:45.495Z,33.00
2018-08-28T12:41:15.233Z,33.70
2018-08-28T12:43:44.550Z,33.60
2018-08-28T12:46:13.156Z,33.40
2018-08-28T12:48:41.942Z,32.70
2018-08-28T12:51:10.687Z,32.70
2018-08-28T12:53:39.504Z,32.80
2018-08-28T12:56:08.218Z,33.00
2018-08-28T12:58:36.894Z,32.90
2018-08-28T13:01:05.722Z,32.90
2018-08-28T13:03:34.399Z,33.10
2018-08-28T13:06:03.704Z,33.20
2018-08-28T13:08:32.448Z,33.00
2018-08-28T13:11:00.970Z,33.00
2018-08-28T13:13:29.612Z,33.10
2018-08-28T13:15:58.800Z,32.70
2018-08-28T13:18:27.454Z,33.00
2018-08-28T13:20:56.218Z,33.30
2018-08-28T13:23:25.012Z,33.00
2018-08-28T13:25:53.773Z,32.70
2018-08-28T13:28:22.344Z,32.70
2018-08-28T13:30:51.190Z,32.60
2018-08-28T13:33:19.820Z,32.20
2018-08-28T13:35:48.425Z,32.10
2018-08-28T13:38:17.063Z,32.10
2018-08-28T13:40:45.898Z,32.10
2018-08-28T13:43:14.168Z,31.80
2018-08-28T13:45:42.825Z,32.10
2018-08-28T13:48:11.499Z,31.50
2018-08-28T13:50:40.300Z,31.30
2018-08-28T13:53:09.116Z,31.30
2018-08-28T13:55:37.741Z,31.00
2018-08-28T13:58:06.503Z,30.90
2018-08-28T14:00:35.171Z,31.60
2018-08-28T14:03:03.821Z,31.60
2018-08-28T14:05:32.543Z,31.60
2018-08-28T14:08:01.135Z,31.80
2018-08-28T14:10:30.064Z,32.10
2018-08-28T14:12:58.733Z,32.70
2018-08-28T14:15:27.268Z,32.20
2018-08-28T14:17:55.895Z,32.30
2018-08-28T14:20:24.609Z,31.90
2018-08-28T14:22:53.307Z,31.70
2018-08-28T14:25:21.921Z,31.80
2018-08-28T14:27:50.658Z,31.40
2018-08-28T14:30:19.229Z,31.90
2018-08-28T14:32:47.800Z,31.30
2018-08-28T14:35:16.517Z,31.20
2018-08-28T14:37:45.408Z,31.30
2018-08-28T14:40:13.988Z,31.50
2018-08-28T14:42:43.357Z,31.80
2018-08-28T14:45:11.912Z,31.70
2018-08-28T14:47:40.573Z,31.80
2018-08-28T14:50:09.314Z,31.60
2018-08-28T14:52:37.959Z,31.70
2018-08-28T14:55:07.909Z,31.80
2018-08-28T14:57:36.509Z,31.90
2018-08-28T15:00:06.400Z,31.80
2018-08-28T15:02:35.009Z,31.60
2018-08-28T15:05:04.566Z,31.70
2018-08-28T15:07:33.579Z,31.70
2018-08-28T15:10:02.604Z,31.60
2018-08-28T15:12:31.572Z,31.70
2018-08-28T15:15:01.210Z,31.90
2018-08-28T15:17:29.836Z,32.00
2018-08-28T15:19:58.360Z,31.90
2018-08-28T15:22:27.095Z,32.10
2018-08-28T15:24:55.689Z,32.00
2018-08-28T15:27:24.478Z,32.10
2018-08-28T15:29:53.215Z,32.00
2018-08-28T15:32:22.412Z,31.60
2018-08-28T15:34:51.104Z,31.80
2018-08-28T15:37:19.785Z,31.40
2018-08-28T15:39:48.368Z,31.30
2018-08-28T15:42:17.214Z,31.40
2018-08-28T15:44:45.827Z,31.30
2018-08-28T15:47:14.507Z,31.00
2018-08-28T15:49:43.258Z,31.90
2018-08-28T15:52:11.892Z,30.80
2018-08-28T15:54:40.491Z,31.00
2018-08-28T15:57:09.986Z,31.00
2018-08-28T15:59:38.601Z,31.30
2018-08-28T16:02:07.166Z,31.40
2018-08-28T16:04:35.972Z,31.40
2018-08-28T16:07:05.126Z,31.50
2018-08-28T16:09:34.196Z,31.80
2018-08-28T16:12:02.959Z,31.50
2018-08-28T16:14:31.581Z,31.40
2018-08-28T16:17:00.289Z,32.10
2018-08-28T16:19:28.906Z,31.70
2018-08-28T16:21:59.343Z,31.70
2018-08-28T16:24:27.992Z,31.80
2018-08-28T16:26:56.684Z,31.60
2018-08-28T16:29:25.622Z,31.50
2018-08-28T16:31:54.231Z,31.60
2018-08-28T16:34:23.253Z,31.50
2018-08-28T16:36:51.939Z,31.30
2018-08-28T16:39:20.614Z,31.30
2018-08-28T16:41:49.352Z,31.20
2018-08-28T16:44:18.043Z,31.30
2018-08-28T16:46:46.759Z,31.60
2018-08-28T16:49:15.440Z,31.60
2018-08-28T16:51:44.080Z,31.50
2018-08-28T16:54:12.842Z,31.40
2018-08-28T16:56:43.525Z,31.50
2018-08-28T16:59:12.256Z,31.30
2018-08-28T17:01:41.011Z,31.60
2018-08-28T17:04:09.566Z,31.50
2018-08-28T17:06:38.325Z,31.30
2018-08-28T17:09:07.323Z,31.50
2018-08-28T17:11:36.005Z,31.60
2018-08-28T17:14:04.701Z,31.90
2018-08-28T17:16:33.572Z,32.10
2018-08-28T17:19:02.338Z,32.00
2018-08-28T17:21:31.187Z,32.10
2018-08-28T17:23:59.820Z,32.30
2018-08-28T17:26:28.649Z,32.30
2018-08-28T17:28:57.246Z,32.30
2018-08-28T17:31:25.841Z,32.40
2018-08-28T17:33:54.516Z,32.40
2018-08-28T17:36:23.135Z,32.40
2018-08-28T17:38:51.757Z,32.60
2018-08-28T17:41:20.383Z,32.30
2018-08-28T17:43:49.037Z,32.20
2018-08-28T17:46:17.802Z,31.90
2018-08-28T17:48:47.037Z,31.90
2018-08-28T17:51:15.605Z,32.10
2018-08-28T17:53:44.448Z,32.10
2018-08-28T17:56:13.069Z,31.90
2018-08-28T17:58:41.756Z,31.90
2018-08-28T18:01:10.524Z,32.50
2018-08-28T18:03:39.380Z,31.70
2018-08-28T18:06:08.058Z,31.60
2018-08-28T18:08:36.798Z,31.60
2018-08-28T18:11:05.620Z,31.70
2018-08-28T18:13:34.282Z,31.60
2018-08-28T18:16:02.945Z,31.70
2018-08-28T18:18:32.547Z,31.70
2018-08-28T18:21:01.329Z,31.80
2018-08-28T18:23:30.188Z,31.70
2018-08-28T18:25:58.908Z,31.70
2018-08-28T18:28:27.810Z,31.80
2018-08-28T18:30:57.215Z,31.80
2018-08-28T18:33:26.010Z,31.90
2018-08-28T18:35:54.707Z,31.90
2018-08-28T18:38:23.405Z,32.20
2018-08-28T18:40:52.328Z,32.10
2018-08-28T18:43:20.957Z,32.20
2018-08-28T18:45:49.562Z,32.20
2018-08-28T18:48:18.198Z,32.40
2018-08-28T18:50:47.418Z,32.60
2018-08-28T18:53:16.654Z,32.80
2018-08-28T18:55:45.287Z,33.50
2018-08-28T18:58:13.968Z,32.80
2018-08-28T19:00:43.596Z,32.70
2018-08-28T19:03:12.407Z,32.70
2018-08-28T19:05:41.188Z,32.70
2018-08-28T19:08:09.733Z,32.70
2018-08-28T19:10:38.913Z,32.60
2018-08-28T19:13:08.271Z,32.60
2018-08-28T19:15:36.972Z,32.60
2018-08-28T19:18:05.707Z,32.70
2018-08-28T19:20:34.361Z,32.90
2018-08-28T19:23:03.073Z,33.10
2018-08-28T19:25:31.808Z,33.70
2018-08-28T19:28:01.211Z,33.20
2018-08-28T19:30:29.875Z,33.20
2018-08-28T19:32:59.305Z,33.30
2018-08-28T19:35:27.936Z,33.30
2018-08-28T19:37:56.621Z,33.30
2018-08-28T19:40:25.807Z,33.40
2018-08-28T19:42:54.475Z,33.50
2018-08-28T19:45:23.238Z,34.20
2018-08-28T19:47:51.941Z,33.70
2018-08-28T19:50:20.578Z,33.80
2018-08-28T19:52:49.313Z,33.80
2018-08-28T19:55:18.182Z,33.90
2018-08-28T19:57:46.754Z,33.90
2018-08-28T20:00:15.502Z,34.00
2018-08-28T20:02:44.125Z,34.00
2018-08-28T20:05:12.700Z,34.00
2018-08-28T20:07:41.297Z,34.20
2018-08-28T20:10:10.048Z,34.20
2018-08-28T20:12:38.753Z,34.30
2018-08-28T20:15:07.441Z,34.40
2018-08-28T20:17:36.132Z,34.70
2018-08-28T20:20:05.296Z,34.60
2018-08-28T20:22:33.972Z,34.70
2018-08-28T20:25:02.685Z,34.70
2018-08-28T20:27:31.678Z,34.90
2018-08-28T20:30:00.436Z,35.00
2018-08-28T20:32:29.067Z,35.00
2018-08-28T20:34:58.683Z,35.80
2018-08-28T20:37:27.572Z,35.20
2018-08-28T20:39:56.241Z,35.20
2018-08-28T20:42:24.845Z,35.20
2018-08-28T20:44:54.192Z,35.40
2018-08-28T20:47:23.033Z,35.30
2018-08-28T20:49:52.211Z,35.40
2018-08-28T20:52:20.827Z,35.50
2018-08-28T20:54:50.493Z,35.60
2018-08-28T20:57:19.643Z,35.60
2018-08-28T20:59:48.537Z,35.30
2018-08-28T21:02:17.747Z,35.60
2018-08-28T21:04:47.860Z,35.60
2018-08-28T21:07:16.440Z,35.60
2018-08-28T21:09:45.047Z,35.50
2018-08-28T21:12:15.488Z,35.60
2018-08-28T21:14:44.355Z,35.50
2018-08-28T21:17:13.032Z,35.60
2018-08-28T21:19:42.424Z,35.60
2018-08-28T21:22:11.204Z,35.50
2018-08-28T21:24:41.015Z,35.40
2018-08-28T21:27:11.330Z,35.60
2018-08-28T21:29:40.461Z,35.60
2018-08-28T21:32:10.056Z,35.80
2018-08-28T21:34:38.942Z,35.80
2018-08-28T21:37:07.805Z,36.50
2018-08-28T21:39:36.717Z,36.20
2018-08-28T21:42:05.677Z,36.20
2018-08-28T21:44:34.479Z,36.20
2018-08-28T21:47:04.378Z,36.60
2018-08-28T21:49:33.586Z,37.40
2018-08-28T21:52:02.470Z,37.30
2018-08-28T21:54:31.967Z,37.30
2018-08-28T21:57:01.267Z,37.30
2018-08-28T21:59:30.185Z,37.60
2018-08-28T22:01:59.706Z,37.70
2018-08-28T22:04:29.623Z,37.80
2018-08-28T22:08:03.279Z,38.00
2018-08-28T22:10:32.464Z,38.00
2018-08-28T22:13:01.828Z,38.30
2018-08-28T22:15:30.460Z,38.30
2018-08-28T22:17:59.046Z,38.80
2018-08-28T22:20:27.660Z,38.90
2018-08-28T22:22:56.973Z,39.10
2018-08-28T22:25:25.914Z,39.20
2018-08-28T22:27:54.548Z,39.30
2018-08-28T22:30:24.598Z,39.50
2018-08-28T22:32:53.437Z,40.30
2018-08-28T22:35:22.609Z,39.70
2018-08-28T22:37:51.481Z,39.60
2018-08-28T22:40:20.169Z,39.50
2018-08-28T22:42:48.856Z,39.50
2018-08-28T22:45:17.577Z,39.50
2018-08-28T22:47:46.192Z,39.40
2018-08-28T22:50:14.898Z,39.70
2018-08-28T22:52:43.688Z,40.00
2018-08-28T22:55:13.003Z,41.00
2018-08-28T22:57:41.593Z,40.50
2018-08-28T23:00:10.216Z,40.70
2018-08-28T23:02:40.061Z,40.70
2018-08-28T23:05:08.710Z,40.80
2018-08-28T23:07:37.348Z,40.80
2018-08-28T23:10:06.093Z,40.80
2018-08-28T23:12:34.867Z,41.10
2018-08-28T23:15:04.137Z,41.00
2018-08-28T23:17:32.734Z,41.00
2018-08-28T23:20:01.328Z,41.00
2018-08-28T23:22:29.942Z,41.30
2018-08-28T23:24:58.945Z,41.40
2018-08-28T23:27:27.691Z,41.50
2018-08-28T23:29:56.266Z,41.60
2018-08-28T23:32:24.848Z,41.70
2018-08-28T23:34:53.472Z,41.80
2018-08-28T23:37:22.343Z,41.90
2018-08-28T23:39:51.055Z,42.10
2018-08-28T23:42:19.829Z,42.00
2018-08-28T23:44:49.032Z,42.20
2018-08-28T23:47:17.588Z,42.20
2018-08-28T23:49:46.463Z,42.40
2018-08-28T23:52:15.091Z,42.60
2018-08-28T23:54:43.758Z,42.80
2018-08-28T23:57:12.445Z,43.00
2018-08-28T23:59:41.085Z,43.10
